sensor_id;sensor_type;location;lat;lon;timestamp;P1;durP1;ratioP1;P2;durP2;ratioP2
78308;SDS011;75657;42.022;21.356;2024-03-02T00:00:13;19.45;;;14.07;;
78308;SDS011;75657;42.022;21.356;2024-03-02T00:02:42;23.08;;;14.57;;
78308;SDS011;75657;42.022;21.356;2024-03-02T00:05:19;18.88;;;12.90;;
78308;SDS011;75657;42.022;21.356;2024-03-02T00:07:47;22.35;;;14.02;;
78308;SDS011;75657;42.022;21.356;2024-03-02T00:10:19;20.83;;;14.45;;
78308;SDS011;75657;42.022;21.356;2024-03-02T00:12:49;21.77;;;14.40;;
78308;SDS011;75657;42.022;21.356;2024-03-02T00:17:43;28.98;;;17.67;;
78308;SDS011;75657;42.022;21.356;2024-03-02T00:20:10;32.72;;;19.27;;
78308;SDS011;75657;42.022;21.356;2024-03-02T00:22:42;34.22;;;18.02;;
78308;SDS011;75657;42.022;21.356;2024-03-02T00:25:07;24.13;;;17.08;;
78308;SDS011;75657;42.022;21.356;2024-03-02T00:27:35;25.65;;;16.38;;
78308;SDS011;75657;42.022;21.356;2024-03-02T00:30:01;23.13;;;16.25;;
78308;SDS011;75657;42.022;21.356;2024-03-02T00:32:51;23.65;;;16.55;;
78308;SDS011;75657;42.022;21.356;2024-03-02T00:35:18;22.00;;;14.88;;
78308;SDS011;75657;42.022;21.356;2024-03-02T00:37:46;27.88;;;15.95;;
78308;SDS011;75657;42.022;21.356;2024-03-02T00:40:11;28.40;;;17.08;;
78308;SDS011;75657;42.022;21.356;2024-03-02T00:42:38;29.75;;;18.67;;
78308;SDS011;75657;42.022;21.356;2024-03-02T00:45:07;28.60;;;17.38;;
78308;SDS011;75657;42.022;21.356;2024-03-02T00:47:37;24.25;;;16.95;;
78308;SDS011;75657;42.022;21.356;2024-03-02T00:50:03;24.02;;;16.05;;
78308;SDS011;75657;42.022;21.356;2024-03-02T00:52:31;23.33;;;16.70;;
78308;SDS011;75657;42.022;21.356;2024-03-02T00:54:58;23.65;;;15.82;;
78308;SDS011;75657;42.022;21.356;2024-03-02T00:57:24;21.40;;;15.73;;
78308;SDS011;75657;42.022;21.356;2024-03-02T00:59:51;25.33;;;16.58;;
78308;SDS011;75657;42.022;21.356;2024-03-02T01:02:17;24.33;;;15.30;;
78308;SDS011;75657;42.022;21.356;2024-03-02T01:04:45;26.98;;;17.75;;
78308;SDS011;75657;42.022;21.356;2024-03-02T01:07:10;27.40;;;15.82;;
78308;SDS011;75657;42.022;21.356;2024-03-02T01:09:36;23.23;;;15.43;;
78308;SDS011;75657;42.022;21.356;2024-03-02T01:12:01;26.80;;;18.17;;
78308;SDS011;75657;42.022;21.356;2024-03-02T01:14:27;24.48;;;16.98;;
78308;SDS011;75657;42.022;21.356;2024-03-02T01:16:53;29.98;;;18.75;;
78308;SDS011;75657;42.022;21.356;2024-03-02T01:19:19;30.77;;;18.02;;
78308;SDS011;75657;42.022;21.356;2024-03-02T01:21:44;25.05;;;16.23;;
78308;SDS011;75657;42.022;21.356;2024-03-02T01:24:10;24.13;;;16.65;;
78308;SDS011;75657;42.022;21.356;2024-03-02T01:26:35;24.58;;;16.42;;
78308;SDS011;75657;42.022;21.356;2024-03-02T01:29:01;26.83;;;17.33;;
78308;SDS011;75657;42.022;21.356;2024-03-02T01:31:26;25.90;;;15.60;;
78308;SDS011;75657;42.022;21.356;2024-03-02T01:33:52;20.90;;;14.50;;
78308;SDS011;75657;42.022;21.356;2024-03-02T01:36:17;23.85;;;15.35;;
78308;SDS011;75657;42.022;21.356;2024-03-02T01:38:43;21.10;;;13.75;;
78308;SDS011;75657;42.022;21.356;2024-03-02T01:41:09;17.52;;;12.30;;
78308;SDS011;75657;42.022;21.356;2024-03-02T01:43:36;18.05;;;12.00;;
78308;SDS011;75657;42.022;21.356;2024-03-02T01:46:02;18.25;;;12.10;;
78308;SDS011;75657;42.022;21.356;2024-03-02T01:48:28;19.95;;;13.50;;
78308;SDS011;75657;42.022;21.356;2024-03-02T01:50:53;18.98;;;13.68;;
78308;SDS011;75657;42.022;21.356;2024-03-02T01:53:19;17.83;;;12.32;;
78308;SDS011;75657;42.022;21.356;2024-03-02T01:55:44;17.75;;;12.82;;
78308;SDS011;75657;42.022;21.356;2024-03-02T01:58:10;15.32;;;11.30;;
78308;SDS011;75657;42.022;21.356;2024-03-02T02:00:35;17.83;;;13.45;;
78308;SDS011;75657;42.022;21.356;2024-03-02T02:03:02;14.85;;;11.88;;
78308;SDS011;75657;42.022;21.356;2024-03-02T02:05:27;20.42;;;13.63;;
78308;SDS011;75657;42.022;21.356;2024-03-02T02:07:53;19.60;;;12.65;;
78308;SDS011;75657;42.022;21.356;2024-03-02T02:10:19;18.88;;;13.70;;
78308;SDS011;75657;42.022;21.356;2024-03-02T02:12:44;17.17;;;13.18;;
78308;SDS011;75657;42.022;21.356;2024-03-02T02:15:28;20.60;;;14.63;;
78308;SDS011;75657;42.022;21.356;2024-03-02T02:17:55;16.23;;;13.18;;
78308;SDS011;75657;42.022;21.356;2024-03-02T02:20:21;18.80;;;13.32;;
78308;SDS011;75657;42.022;21.356;2024-03-02T02:23:00;22.20;;;14.48;;
78308;SDS011;75657;42.022;21.356;2024-03-02T02:25:27;19.00;;;14.73;;
78308;SDS011;75657;42.022;21.356;2024-03-02T02:27:53;21.30;;;14.90;;
78308;SDS011;75657;42.022;21.356;2024-03-02T02:30:24;21.60;;;14.35;;
78308;SDS011;75657;42.022;21.356;2024-03-02T02:32:53;18.30;;;14.27;;
78308;SDS011;75657;42.022;21.356;2024-03-02T02:35:19;23.38;;;14.60;;
78308;SDS011;75657;42.022;21.356;2024-03-02T02:37:45;19.00;;;14.68;;
78308;SDS011;75657;42.022;21.356;2024-03-02T02:40:12;19.60;;;14.55;;
78308;SDS011;75657;42.022;21.356;2024-03-02T02:42:38;21.60;;;14.48;;
78308;SDS011;75657;42.022;21.356;2024-03-02T02:45:05;22.40;;;15.30;;
78308;SDS011;75657;42.022;21.356;2024-03-02T02:47:31;23.55;;;15.57;;
78308;SDS011;75657;42.022;21.356;2024-03-02T02:50:00;22.58;;;15.32;;
78308;SDS011;75657;42.022;21.356;2024-03-02T02:52:30;21.30;;;14.80;;
78308;SDS011;75657;42.022;21.356;2024-03-02T02:54:58;21.38;;;15.10;;
78308;SDS011;75657;42.022;21.356;2024-03-02T02:57:23;21.90;;;15.65;;
78308;SDS011;75657;42.022;21.356;2024-03-02T02:59:49;22.70;;;16.48;;
78308;SDS011;75657;42.022;21.356;2024-03-02T03:02:14;22.58;;;15.95;;
78308;SDS011;75657;42.022;21.356;2024-03-02T03:04:40;23.83;;;16.45;;
78308;SDS011;75657;42.022;21.356;2024-03-02T03:07:05;21.83;;;16.45;;
78308;SDS011;75657;42.022;21.356;2024-03-02T03:09:31;23.58;;;18.20;;
78308;SDS011;75657;42.022;21.356;2024-03-02T03:11:57;24.10;;;16.92;;
78308;SDS011;75657;42.022;21.356;2024-03-02T03:14:25;26.77;;;18.33;;
78308;SDS011;75657;42.022;21.356;2024-03-02T03:16:51;22.33;;;16.33;;
78308;SDS011;75657;42.022;21.356;2024-03-02T03:19:16;26.02;;;17.80;;
78308;SDS011;75657;42.022;21.356;2024-03-02T03:21:43;25.48;;;17.90;;
78308;SDS011;75657;42.022;21.356;2024-03-02T03:24:09;26.00;;;17.65;;
78308;SDS011;75657;42.022;21.356;2024-03-02T03:26:35;29.60;;;18.98;;
78308;SDS011;75657;42.022;21.356;2024-03-02T03:29:01;25.05;;;17.92;;
78308;SDS011;75657;42.022;21.356;2024-03-02T03:31:28;25.80;;;17.92;;
78308;SDS011;75657;42.022;21.356;2024-03-02T03:33:54;26.83;;;19.13;;
78308;SDS011;75657;42.022;21.356;2024-03-02T03:36:19;26.70;;;18.48;;
78308;SDS011;75657;42.022;21.356;2024-03-02T03:38:45;28.40;;;18.30;;
78308;SDS011;75657;42.022;21.356;2024-03-02T03:41:10;25.15;;;18.13;;
78308;SDS011;75657;42.022;21.356;2024-03-02T03:43:36;25.63;;;17.23;;
78308;SDS011;75657;42.022;21.356;2024-03-02T03:46:01;30.10;;;19.35;;
78308;SDS011;75657;42.022;21.356;2024-03-02T03:48:27;26.10;;;19.55;;
78308;SDS011;75657;42.022;21.356;2024-03-02T03:50:55;29.60;;;19.20;;
78308;SDS011;75657;42.022;21.356;2024-03-02T03:53:21;29.20;;;19.75;;
78308;SDS011;75657;42.022;21.356;2024-03-02T03:55:47;26.63;;;18.50;;
78308;SDS011;75657;42.022;21.356;2024-03-02T03:58:14;27.80;;;18.77;;
78308;SDS011;75657;42.022;21.356;2024-03-02T04:00:41;25.52;;;18.08;;
78308;SDS011;75657;42.022;21.356;2024-03-02T04:03:07;24.08;;;17.08;;
78308;SDS011;75657;42.022;21.356;2024-03-02T04:05:33;23.65;;;17.33;;
78308;SDS011;75657;42.022;21.356;2024-03-02T04:07:58;27.98;;;17.48;;
78308;SDS011;75657;42.022;21.356;2024-03-02T04:10:25;24.83;;;17.27;;
78308;SDS011;75657;42.022;21.356;2024-03-02T04:12:50;25.48;;;18.33;;
78308;SDS011;75657;42.022;21.356;2024-03-02T04:15:16;24.95;;;17.42;;
78308;SDS011;75657;42.022;21.356;2024-03-02T04:17:43;24.45;;;16.88;;
78308;SDS011;75657;42.022;21.356;2024-03-02T04:20:09;26.02;;;17.85;;
78308;SDS011;75657;42.022;21.356;2024-03-02T04:22:37;24.60;;;16.83;;
78308;SDS011;75657;42.022;21.356;2024-03-02T04:25:03;23.77;;;17.30;;
78308;SDS011;75657;42.022;21.356;2024-03-02T04:27:30;26.77;;;18.20;;
78308;SDS011;75657;42.022;21.356;2024-03-02T04:29:56;27.00;;;18.65;;
78308;SDS011;75657;42.022;21.356;2024-03-02T04:32:22;27.27;;;18.98;;
78308;SDS011;75657;42.022;21.356;2024-03-02T04:34:48;24.95;;;17.10;;
78308;SDS011;75657;42.022;21.356;2024-03-02T04:37:13;23.83;;;16.42;;
78308;SDS011;75657;42.022;21.356;2024-03-02T04:39:39;24.35;;;17.83;;
78308;SDS011;75657;42.022;21.356;2024-03-02T04:42:05;22.50;;;16.35;;
78308;SDS011;75657;42.022;21.356;2024-03-02T04:44:30;23.33;;;16.48;;
78308;SDS011;75657;42.022;21.356;2024-03-02T04:46:56;26.08;;;17.13;;
78308;SDS011;75657;42.022;21.356;2024-03-02T04:49:21;25.23;;;16.52;;
78308;SDS011;75657;42.022;21.356;2024-03-02T04:51:47;25.88;;;17.38;;
78308;SDS011;75657;42.022;21.356;2024-03-02T04:54:12;23.20;;;15.68;;
78308;SDS011;75657;42.022;21.356;2024-03-02T04:56:39;22.23;;;14.80;;
78308;SDS011;75657;42.022;21.356;2024-03-02T04:59:14;21.40;;;14.63;;
78308;SDS011;75657;42.022;21.356;2024-03-02T05:01:43;27.85;;;15.63;;
78308;SDS011;75657;42.022;21.356;2024-03-02T05:04:09;23.52;;;13.00;;
78308;SDS011;75657;42.022;21.356;2024-03-02T05:06:38;20.30;;;13.57;;
78308;SDS011;75657;42.022;21.356;2024-03-02T05:09:09;18.48;;;12.18;;
78308;SDS011;75657;42.022;21.356;2024-03-02T05:11:35;15.15;;;11.20;;
78308;SDS011;75657;42.022;21.356;2024-03-02T05:14:04;19.10;;;12.68;;
78308;SDS011;75657;42.022;21.356;2024-03-02T05:16:33;19.25;;;11.45;;
78308;SDS011;75657;42.022;21.356;2024-03-02T05:19:00;28.02;;;18.20;;
78308;SDS011;75657;42.022;21.356;2024-03-02T05:21:25;25.92;;;19.15;;
78308;SDS011;75657;42.022;21.356;2024-03-02T05:23:51;23.05;;;16.58;;
78308;SDS011;75657;42.022;21.356;2024-03-02T05:26:16;26.05;;;16.58;;
78308;SDS011;75657;42.022;21.356;2024-03-02T05:28:42;22.98;;;15.73;;
78308;SDS011;75657;42.022;21.356;2024-03-02T05:31:10;26.00;;;16.83;;
78308;SDS011;75657;42.022;21.356;2024-03-02T05:33:39;23.00;;;16.13;;
78308;SDS011;75657;42.022;21.356;2024-03-02T05:36:05;24.42;;;17.27;;
78308;SDS011;75657;42.022;21.356;2024-03-02T05:38:31;22.65;;;16.05;;
78308;SDS011;75657;42.022;21.356;2024-03-02T05:40:57;22.90;;;15.15;;
78308;SDS011;75657;42.022;21.356;2024-03-02T05:43:23;23.35;;;16.17;;
78308;SDS011;75657;42.022;21.356;2024-03-02T05:45:48;20.58;;;15.48;;
78308;SDS011;75657;42.022;21.356;2024-03-02T05:48:14;22.27;;;15.52;;
78308;SDS011;75657;42.022;21.356;2024-03-02T05:50:40;22.38;;;15.63;;
78308;SDS011;75657;42.022;21.356;2024-03-02T05:53:05;20.98;;;16.05;;
78308;SDS011;75657;42.022;21.356;2024-03-02T05:55:31;23.38;;;15.93;;
78308;SDS011;75657;42.022;21.356;2024-03-02T05:57:56;25.38;;;17.58;;
78308;SDS011;75657;42.022;21.356;2024-03-02T06:00:31;24.27;;;16.50;;
78308;SDS011;75657;42.022;21.356;2024-03-02T06:02:56;23.85;;;16.50;;
78308;SDS011;75657;42.022;21.356;2024-03-02T06:05:22;28.58;;;19.13;;
78308;SDS011;75657;42.022;21.356;2024-03-02T06:07:47;27.20;;;18.27;;
78308;SDS011;75657;42.022;21.356;2024-03-02T06:10:13;21.30;;;15.38;;
78308;SDS011;75657;42.022;21.356;2024-03-02T06:12:39;20.80;;;14.98;;
78308;SDS011;75657;42.022;21.356;2024-03-02T06:15:05;21.23;;;16.42;;
78308;SDS011;75657;42.022;21.356;2024-03-02T06:17:31;26.23;;;18.60;;
78308;SDS011;75657;42.022;21.356;2024-03-02T06:19:56;24.77;;;21.63;;
78308;SDS011;75657;42.022;21.356;2024-03-02T06:22:23;24.42;;;20.45;;
78308;SDS011;75657;42.022;21.356;2024-03-02T06:24:50;25.05;;;20.05;;
78308;SDS011;75657;42.022;21.356;2024-03-02T06:27:16;22.58;;;18.05;;
78308;SDS011;75657;42.022;21.356;2024-03-02T06:29:41;23.95;;;18.50;;
78308;SDS011;75657;42.022;21.356;2024-03-02T06:32:07;31.95;;;25.40;;
78308;SDS011;75657;42.022;21.356;2024-03-02T06:34:33;27.92;;;22.77;;
78308;SDS011;75657;42.022;21.356;2024-03-02T06:36:58;21.83;;;17.45;;
78308;SDS011;75657;42.022;21.356;2024-03-02T06:39:24;21.35;;;16.30;;
78308;SDS011;75657;42.022;21.356;2024-03-02T06:41:51;23.58;;;18.42;;
78308;SDS011;75657;42.022;21.356;2024-03-02T06:44:17;26.33;;;16.27;;
78308;SDS011;75657;42.022;21.356;2024-03-02T06:46:42;20.23;;;14.80;;
78308;SDS011;75657;42.022;21.356;2024-03-02T06:49:08;29.48;;;18.40;;
78308;SDS011;75657;42.022;21.356;2024-03-02T06:51:35;19.73;;;13.80;;
78308;SDS011;75657;42.022;21.356;2024-03-02T06:54:01;16.88;;;11.30;;
78308;SDS011;75657;42.022;21.356;2024-03-02T06:56:27;16.13;;;11.35;;
78308;SDS011;75657;42.022;21.356;2024-03-02T06:58:52;16.60;;;10.18;;
78308;SDS011;75657;42.022;21.356;2024-03-02T07:01:17;17.48;;;11.70;;
78308;SDS011;75657;42.022;21.356;2024-03-02T07:03:45;16.00;;;11.65;;
78308;SDS011;75657;42.022;21.356;2024-03-02T07:06:10;17.60;;;12.13;;
78308;SDS011;75657;42.022;21.356;2024-03-02T07:08:36;13.82;;;10.43;;
78308;SDS011;75657;42.022;21.356;2024-03-02T07:11:01;12.38;;;8.68;;
78308;SDS011;75657;42.022;21.356;2024-03-02T07:13:27;14.98;;;9.38;;
78308;SDS011;75657;42.022;21.356;2024-03-02T07:15:52;15.45;;;10.02;;
78308;SDS011;75657;42.022;21.356;2024-03-02T07:18:36;15.80;;;11.75;;
78308;SDS011;75657;42.022;21.356;2024-03-02T07:21:06;14.27;;;10.43;;
78308;SDS011;75657;42.022;21.356;2024-03-02T07:23:32;13.13;;;9.93;;
78308;SDS011;75657;42.022;21.356;2024-03-02T07:25:58;12.27;;;9.48;;
78308;SDS011;75657;42.022;21.356;2024-03-02T07:28:25;10.15;;;7.93;;
78308;SDS011;75657;42.022;21.356;2024-03-02T07:31:04;12.40;;;8.60;;
78308;SDS011;75657;42.022;21.356;2024-03-02T07:33:30;15.27;;;9.45;;
78308;SDS011;75657;42.022;21.356;2024-03-02T07:35:56;14.98;;;9.75;;
78308;SDS011;75657;42.022;21.356;2024-03-02T07:38:24;15.52;;;9.00;;
78308;SDS011;75657;42.022;21.356;2024-03-02T07:40:49;12.80;;;8.60;;
78308;SDS011;75657;42.022;21.356;2024-03-02T07:43:18;11.23;;;7.65;;
78308;SDS011;75657;42.022;21.356;2024-03-02T07:45:44;11.45;;;7.22;;
78308;SDS011;75657;42.022;21.356;2024-03-02T07:48:10;10.75;;;7.78;;
78308;SDS011;75657;42.022;21.356;2024-03-02T07:50:36;12.18;;;8.55;;
78308;SDS011;75657;42.022;21.356;2024-03-02T07:53:02;14.40;;;9.60;;
78308;SDS011;75657;42.022;21.356;2024-03-02T07:55:29;17.90;;;11.75;;
78308;SDS011;75657;42.022;21.356;2024-03-02T07:57:55;16.98;;;11.18;;
78308;SDS011;75657;42.022;21.356;2024-03-02T08:00:21;14.35;;;10.80;;
78308;SDS011;75657;42.022;21.356;2024-03-02T08:02:48;11.80;;;9.00;;
78308;SDS011;75657;42.022;21.356;2024-03-02T08:05:14;15.30;;;8.95;;
78308;SDS011;75657;42.022;21.356;2024-03-02T08:07:39;13.85;;;8.82;;
78308;SDS011;75657;42.022;21.356;2024-03-02T08:10:06;13.82;;;10.30;;
78308;SDS011;75657;42.022;21.356;2024-03-02T08:12:32;11.13;;;8.23;;
78308;SDS011;75657;42.022;21.356;2024-03-02T08:14:57;10.98;;;8.15;;
78308;SDS011;75657;42.022;21.356;2024-03-02T08:17:23;11.82;;;8.57;;
78308;SDS011;75657;42.022;21.356;2024-03-02T08:19:48;12.85;;;9.45;;
78308;SDS011;75657;42.022;21.356;2024-03-02T08:22:14;13.32;;;8.80;;
78308;SDS011;75657;42.022;21.356;2024-03-02T08:24:40;12.00;;;8.82;;
78308;SDS011;75657;42.022;21.356;2024-03-02T08:27:06;13.02;;;8.05;;
78308;SDS011;75657;42.022;21.356;2024-03-02T08:29:31;10.75;;;7.90;;
78308;SDS011;75657;42.022;21.356;2024-03-02T08:31:57;13.60;;;8.57;;
78308;SDS011;75657;42.022;21.356;2024-03-02T08:34:22;11.82;;;7.97;;
78308;SDS011;75657;42.022;21.356;2024-03-02T08:36:48;17.13;;;9.30;;
78308;SDS011;75657;42.022;21.356;2024-03-02T08:39:14;11.00;;;7.82;;
78308;SDS011;75657;42.022;21.356;2024-03-02T08:41:49;12.77;;;7.43;;
78308;SDS011;75657;42.022;21.356;2024-03-02T08:44:15;10.40;;;6.50;;
78308;SDS011;75657;42.022;21.356;2024-03-02T08:46:42;12.00;;;8.85;;
78308;SDS011;75657;42.022;21.356;2024-03-02T08:49:08;11.73;;;7.75;;
78308;SDS011;75657;42.022;21.356;2024-03-02T08:51:34;10.23;;;7.57;;
78308;SDS011;75657;42.022;21.356;2024-03-02T08:54:00;10.63;;;8.45;;
78308;SDS011;75657;42.022;21.356;2024-03-02T08:56:25;14.70;;;8.43;;
78308;SDS011;75657;42.022;21.356;2024-03-02T08:58:51;16.05;;;8.38;;
78308;SDS011;75657;42.022;21.356;2024-03-02T09:01:17;13.00;;;7.63;;
78308;SDS011;75657;42.022;21.356;2024-03-02T09:03:44;11.43;;;7.72;;
78308;SDS011;75657;42.022;21.356;2024-03-02T09:06:13;9.65;;;7.25;;
78308;SDS011;75657;42.022;21.356;2024-03-02T09:08:39;11.40;;;7.78;;
78308;SDS011;75657;42.022;21.356;2024-03-02T09:11:07;11.90;;;7.97;;
78308;SDS011;75657;42.022;21.356;2024-03-02T09:13:33;16.25;;;10.27;;
78308;SDS011;75657;42.022;21.356;2024-03-02T09:15:59;14.88;;;9.40;;
78308;SDS011;75657;42.022;21.356;2024-03-02T09:18:25;15.18;;;9.18;;
78308;SDS011;75657;42.022;21.356;2024-03-02T09:20:50;11.73;;;8.38;;
78308;SDS011;75657;42.022;21.356;2024-03-02T09:23:16;12.15;;;8.68;;
78308;SDS011;75657;42.022;21.356;2024-03-02T09:25:41;11.30;;;7.85;;
78308;SDS011;75657;42.022;21.356;2024-03-02T09:28:07;13.50;;;8.52;;
78308;SDS011;75657;42.022;21.356;2024-03-02T09:30:32;11.88;;;7.53;;
78308;SDS011;75657;42.022;21.356;2024-03-02T09:32:58;13.63;;;8.38;;
78308;SDS011;75657;42.022;21.356;2024-03-02T09:35:24;12.95;;;8.43;;
78308;SDS011;75657;42.022;21.356;2024-03-02T09:37:49;11.70;;;8.20;;
78308;SDS011;75657;42.022;21.356;2024-03-02T09:40:15;13.30;;;8.40;;
78308;SDS011;75657;42.022;21.356;2024-03-02T09:42:41;12.23;;;8.68;;
78308;SDS011;75657;42.022;21.356;2024-03-02T09:45:08;13.85;;;8.20;;
78308;SDS011;75657;42.022;21.356;2024-03-02T09:47:35;12.38;;;8.02;;
78308;SDS011;75657;42.022;21.356;2024-03-02T09:50:00;8.98;;;6.95;;
78308;SDS011;75657;42.022;21.356;2024-03-02T09:52:26;9.93;;;7.85;;
78308;SDS011;75657;42.022;21.356;2024-03-02T09:54:52;10.68;;;7.70;;
78308;SDS011;75657;42.022;21.356;2024-03-02T09:57:18;10.45;;;6.53;;
78308;SDS011;75657;42.022;21.356;2024-03-02T09:59:44;20.20;;;8.55;;
78308;SDS011;75657;42.022;21.356;2024-03-02T10:02:10;15.60;;;8.05;;
78308;SDS011;75657;42.022;21.356;2024-03-02T10:04:36;12.82;;;6.70;;
78308;SDS011;75657;42.022;21.356;2024-03-02T10:07:17;11.15;;;6.38;;
78308;SDS011;75657;42.022;21.356;2024-03-02T10:09:44;10.68;;;6.75;;
78308;SDS011;75657;42.022;21.356;2024-03-02T10:12:11;12.15;;;7.45;;
78308;SDS011;75657;42.022;21.356;2024-03-02T10:14:38;8.77;;;6.30;;
78308;SDS011;75657;42.022;21.356;2024-03-02T10:17:08;11.80;;;6.75;;
78308;SDS011;75657;42.022;21.356;2024-03-02T10:19:35;11.57;;;7.18;;
78308;SDS011;75657;42.022;21.356;2024-03-02T10:22:02;9.77;;;6.97;;
78308;SDS011;75657;42.022;21.356;2024-03-02T10:27:10;11.80;;;8.27;;
78308;SDS011;75657;42.022;21.356;2024-03-02T10:29:40;11.82;;;7.05;;
78308;SDS011;75657;42.022;21.356;2024-03-02T10:32:06;16.08;;;8.55;;
78308;SDS011;75657;42.022;21.356;2024-03-02T10:34:35;13.98;;;7.28;;
78308;SDS011;75657;42.022;21.356;2024-03-02T10:37:01;10.77;;;6.68;;
78308;SDS011;75657;42.022;21.356;2024-03-02T10:39:27;12.43;;;6.30;;
78308;SDS011;75657;42.022;21.356;2024-03-02T10:41:53;8.77;;;6.50;;
78308;SDS011;75657;42.022;21.356;2024-03-02T10:44:20;9.93;;;6.57;;
78308;SDS011;75657;42.022;21.356;2024-03-02T10:46:47;9.77;;;5.95;;
78308;SDS011;75657;42.022;21.356;2024-03-02T10:49:15;8.93;;;6.38;;
78308;SDS011;75657;42.022;21.356;2024-03-02T10:51:42;14.90;;;6.82;;
78308;SDS011;75657;42.022;21.356;2024-03-02T10:54:07;9.00;;;5.80;;
78308;SDS011;75657;42.022;21.356;2024-03-02T10:56:34;11.02;;;5.93;;
78308;SDS011;75657;42.022;21.356;2024-03-02T11:01:51;8.23;;;5.45;;
78308;SDS011;75657;42.022;21.356;2024-03-02T11:04:21;9.23;;;5.63;;
78308;SDS011;75657;42.022;21.356;2024-03-02T11:06:49;12.45;;;5.63;;
78308;SDS011;75657;42.022;21.356;2024-03-02T11:09:18;11.95;;;6.30;;
78308;SDS011;75657;42.022;21.356;2024-03-02T11:11:46;9.73;;;5.53;;
78308;SDS011;75657;42.022;21.356;2024-03-02T11:14:21;7.65;;;4.68;;
78308;SDS011;75657;42.022;21.356;2024-03-02T11:16:50;8.32;;;4.40;;
78308;SDS011;75657;42.022;21.356;2024-03-02T11:19:17;12.80;;;6.15;;
78308;SDS011;75657;42.022;21.356;2024-03-02T11:21:43;11.95;;;5.95;;
78308;SDS011;75657;42.022;21.356;2024-03-02T11:24:28;13.15;;;6.50;;
78308;SDS011;75657;42.022;21.356;2024-03-02T11:26:58;11.73;;;7.70;;
78308;SDS011;75657;42.022;21.356;2024-03-02T11:32:05;12.05;;;6.10;;
78308;SDS011;75657;42.022;21.356;2024-03-02T11:34:35;10.20;;;5.13;;
78308;SDS011;75657;42.022;21.356;2024-03-02T11:37:02;8.85;;;4.38;;
78308;SDS011;75657;42.022;21.356;2024-03-02T11:39:28;12.77;;;5.57;;
78308;SDS011;75657;42.022;21.356;2024-03-02T11:41:57;8.32;;;5.72;;
78308;SDS011;75657;42.022;21.356;2024-03-02T11:44:26;12.88;;;6.47;;
78308;SDS011;75657;42.022;21.356;2024-03-02T11:46:59;10.40;;;6.20;;
78308;SDS011;75657;42.022;21.356;2024-03-02T11:49:40;10.15;;;5.63;;
78308;SDS011;75657;42.022;21.356;2024-03-02T11:52:08;8.10;;;4.97;;
78308;SDS011;75657;42.022;21.356;2024-03-02T11:54:36;9.93;;;5.45;;
78308;SDS011;75657;42.022;21.356;2024-03-02T11:57:06;11.45;;;5.10;;
78308;SDS011;75657;42.022;21.356;2024-03-02T11:59:33;9.88;;;5.68;;
78308;SDS011;75657;42.022;21.356;2024-03-02T12:01:59;15.25;;;7.47;;
78308;SDS011;75657;42.022;21.356;2024-03-02T12:04:25;16.02;;;6.72;;
78308;SDS011;75657;42.022;21.356;2024-03-02T12:06:55;12.48;;;6.30;;
78308;SDS011;75657;42.022;21.356;2024-03-02T12:09:27;13.38;;;7.30;;
78308;SDS011;75657;42.022;21.356;2024-03-02T12:12:09;16.27;;;8.93;;
78308;SDS011;75657;42.022;21.356;2024-03-02T12:14:35;13.20;;;7.28;;
78308;SDS011;75657;42.022;21.356;2024-03-02T12:17:02;13.00;;;6.72;;
78308;SDS011;75657;42.022;21.356;2024-03-02T12:19:28;11.23;;;6.90;;
78308;SDS011;75657;42.022;21.356;2024-03-02T12:21:55;13.18;;;6.68;;
78308;SDS011;75657;42.022;21.356;2024-03-02T12:24:21;10.88;;;6.22;;
78308;SDS011;75657;42.022;21.356;2024-03-02T12:26:48;10.25;;;5.80;;
78308;SDS011;75657;42.022;21.356;2024-03-02T12:29:15;10.07;;;5.57;;
78308;SDS011;75657;42.022;21.356;2024-03-02T12:31:42;9.48;;;5.05;;
78308;SDS011;75657;42.022;21.356;2024-03-02T12:34:11;11.25;;;5.05;;
78308;SDS011;75657;42.022;21.356;2024-03-02T12:36:39;7.45;;;4.68;;
78308;SDS011;75657;42.022;21.356;2024-03-02T12:39:06;9.88;;;4.93;;
78308;SDS011;75657;42.022;21.356;2024-03-02T12:41:35;12.68;;;5.20;;
78308;SDS011;75657;42.022;21.356;2024-03-02T12:44:02;14.60;;;5.32;;
78308;SDS011;75657;42.022;21.356;2024-03-02T12:46:28;14.38;;;5.50;;
78308;SDS011;75657;42.022;21.356;2024-03-02T12:48:54;21.17;;;9.65;;
78308;SDS011;75657;42.022;21.356;2024-03-02T12:51:19;11.85;;;6.57;;
78308;SDS011;75657;42.022;21.356;2024-03-02T12:53:45;16.88;;;6.75;;
78308;SDS011;75657;42.022;21.356;2024-03-02T12:56:18;14.10;;;7.10;;
78308;SDS011;75657;42.022;21.356;2024-03-02T12:58:43;14.25;;;7.93;;
78308;SDS011;75657;42.022;21.356;2024-03-02T13:01:09;21.15;;;9.32;;
78308;SDS011;75657;42.022;21.356;2024-03-02T13:03:38;15.88;;;7.75;;
78308;SDS011;75657;42.022;21.356;2024-03-02T13:06:04;11.73;;;6.25;;
78308;SDS011;75657;42.022;21.356;2024-03-02T13:08:31;13.27;;;6.45;;
78308;SDS011;75657;42.022;21.356;2024-03-02T13:10:57;16.98;;;8.52;;
78308;SDS011;75657;42.022;21.356;2024-03-02T13:13:23;9.07;;;5.43;;
78308;SDS011;75657;42.022;21.356;2024-03-02T13:15:49;10.82;;;6.25;;
78308;SDS011;75657;42.022;21.356;2024-03-02T13:18:14;12.35;;;6.82;;
78308;SDS011;75657;42.022;21.356;2024-03-02T13:20:43;13.25;;;6.72;;
78308;SDS011;75657;42.022;21.356;2024-03-02T13:23:08;8.50;;;4.82;;
78308;SDS011;75657;42.022;21.356;2024-03-02T13:25:35;11.63;;;5.63;;
78308;SDS011;75657;42.022;21.356;2024-03-02T13:28:00;8.13;;;5.15;;
78308;SDS011;75657;42.022;21.356;2024-03-02T13:30:27;8.75;;;5.28;;
78308;SDS011;75657;42.022;21.356;2024-03-02T13:32:53;11.15;;;5.78;;
78308;SDS011;75657;42.022;21.356;2024-03-02T13:35:19;8.45;;;4.63;;
78308;SDS011;75657;42.022;21.356;2024-03-02T13:37:44;9.13;;;4.50;;
78308;SDS011;75657;42.022;21.356;2024-03-02T13:40:10;9.40;;;4.90;;
78308;SDS011;75657;42.022;21.356;2024-03-02T13:42:39;16.80;;;8.50;;
78308;SDS011;75657;42.022;21.356;2024-03-02T13:45:05;14.27;;;5.70;;
78308;SDS011;75657;42.022;21.356;2024-03-02T13:47:31;9.13;;;5.25;;
78308;SDS011;75657;42.022;21.356;2024-03-02T13:49:57;10.82;;;5.25;;
78308;SDS011;75657;42.022;21.356;2024-03-02T13:52:23;13.10;;;5.03;;
78308;SDS011;75657;42.022;21.356;2024-03-02T13:54:50;9.23;;;4.57;;
78308;SDS011;75657;42.022;21.356;2024-03-02T13:57:17;8.48;;;4.40;;
78308;SDS011;75657;42.022;21.356;2024-03-02T13:59:45;9.50;;;4.45;;
78308;SDS011;75657;42.022;21.356;2024-03-02T14:02:11;9.63;;;4.20;;
78308;SDS011;75657;42.022;21.356;2024-03-02T14:04:37;8.93;;;4.28;;
78308;SDS011;75657;42.022;21.356;2024-03-02T14:07:03;12.85;;;5.53;;
78308;SDS011;75657;42.022;21.356;2024-03-02T14:09:32;10.63;;;5.85;;
78308;SDS011;75657;42.022;21.356;2024-03-02T14:11:57;13.00;;;5.50;;
78308;SDS011;75657;42.022;21.356;2024-03-02T14:14:25;7.65;;;5.07;;
78308;SDS011;75657;42.022;21.356;2024-03-02T14:16:52;8.10;;;5.03;;
78308;SDS011;75657;42.022;21.356;2024-03-02T14:19:18;9.48;;;4.88;;
78308;SDS011;75657;42.022;21.356;2024-03-02T14:21:44;14.18;;;4.80;;
78308;SDS011;75657;42.022;21.356;2024-03-02T14:24:09;8.82;;;4.60;;